Time;durP1;ratioP1;P1;durP2;ratioP2;P2;SDS_P1;SDS_P2;PMS_P1;PMS_P2;Temp;Humidity;BMP_temperature;BMP_pressure;BME280_temperature;BME280_humidity;BME280_pressure;Samples;Min_cycle;Max_cycle;Signal;HPM_P1;HPM_P2
2022/08/02 00:01:35;;;;;;;9.53;4.43;;;21.80;1.00;;;;;;4989517;28;20216;-67
2022/08/02 00:04:01;;;;;;;6.20;3.33;;;21.70;1.00;;;;;;4990571;28;20219;-70
2022/08/02 00:06:26;;;;;;;4.73;3.20;;;21.70;1.00;;;;;;4990492;28;20165;-68
2022/08/02 00:08:53;;;;;;;6.23;3.27;;;21.70;1.00;;;;;;4991049;28;20165;-68
2022/08/02 00:11:19;;;;;;;4.33;3.57;;;21.70;99.90;;;;;;4996627;28;20233;-68
2022/08/02 00:13:45;;;;;;;5.27;2.90;;;21.80;99.90;;;;;;4992039;28;20515;-69
2022/08/02 00:16:11;;;;;;;4.00;3.27;;;21.80;99.90;;;;;;4990645;28;20263;-69
2022/08/02 00:18:37;;;;;;;4.73;3.13;;;21.80;99.90;;;;;;4994383;28;20752;-67
2022/08/02 00:21:03;;;;;;;4.67;3.13;;;21.80;1.00;;;;;;4990349;28;20235;-70
2022/08/02 00:23:28;;;;;;;4.37;3.27;;;21.90;1.00;;;;;;4990711;28;20628;-70
2022/08/02 00:25:54;;;;;;;11.57;3.50;;;21.80;1.00;;;;;;4990570;28;20165;-70
2022/08/02 00:28:20;;;;;;;5.13;3.20;;;21.80;1.00;;;;;;4989985;28;20231;-67
2022/08/02 00:30:46;;;;;;;8.83;3.70;;;21.80;1.00;;;;;;4990868;28;20630;-68
2022/08/02 00:33:11;;;;;;;5.87;3.50;;;21.80;1.00;;;;;;4988065;28;20744;-70
2022/08/02 00:35:37;;;;;;;7.20;2.90;;;21.80;1.00;;;;;;4990944;28;20184;-70
2022/08/02 00:38:03;;;;;;;3.53;3.23;;;21.70;1.00;;;;;;4989958;28;20177;-69
2022/08/02 00:40:29;;;;;;;3.40;2.83;;;21.70;1.00;;;;;;4989885;28;20180;-69
2022/08/02 00:43:07;;;;;;;9.30;3.40;;;21.60;1.00;;;;;;4990472;28;20976;-69
2022/08/02 00:45:34;;;;;;;3.93;3.23;;;21.60;1.00;;;;;;4992221;28;20404;-69
2022/08/02 00:48:00;;;;;;;10.77;4.50;;;21.60;1.00;;;;;;5009586;28;20411;-69
2022/08/02 00:50:27;;;;;;;6.70;3.70;;;21.50;1.00;;;;;;5009035;28;20562;-71
2022/08/02 00:52:52;;;;;;;5.37;2.93;;;21.50;11.30;;;;;;4998282;28;20196;-68
2022/08/02 00:55:19;;;;;;;7.50;3.47;;;21.40;99.90;;;;;;4992397;28;20904;-69
2022/08/02 00:57:45;;;;;;;3.93;3.03;;;21.30;99.90;;;;;;4993722;28;20241;-67
2022/08/02 01:00:11;;;;;;;11.17;4.00;;;21.30;99.90;;;;;;4993706;28;20924;-69
2022/08/02 01:02:37;;;;;;;5.10;3.10;;;21.40;99.90;;;;;;4993616;28;20200;-70
2022/08/02 01:05:03;;;;;;;4.17;2.63;;;21.40;8.90;;;;;;4994344;28;20543;-68
2022/08/02 01:07:29;;;;;;;3.07;2.60;;;21.40;1.00;;;;;;4993964;28;20161;-67
2022/08/02 01:09:55;;;;;;;4.23;2.77;;;21.30;1.00;;;;;;4994241;28;20615;-67
2022/08/02 01:12:20;;;;;;;6.00;3.17;;;21.20;99.90;;;;;;4994493;28;20173;-68
2022/08/02 01:14:49;;;;;;;5.00;3.00;;;21.20;99.90;;;;;;4993467;28;20930;-68
2022/08/02 01:17:19;;;;;;;6.50;2.90;;;21.20;3.00;;;;;;4993390;28;20180;-68
2022/08/02 01:19:52;;;;;;;6.70;3.10;;;21.20;9.60;;;;;;4993696;28;20404;-68
2022/08/02 01:22:45;;;;;;;5.30;2.70;;;21.20;29.40;;;;;;4993363;28;20404;-67
2022/08/02 01:25:31;;;;;;;4.60;2.53;;;21.30;1.00;;;;;;4990285;28;20523;-68
2022/08/02 01:28:25;;;;;;;5.80;2.60;;;21.30;1.00;;;;;;4993497;28;20381;-68
2022/08/02 01:30:57;;;;;;;4.10;3.13;;;21.30;1.00;;;;;;4993580;28;20791;-69
2022/08/02 01:33:29;;;;;;;6.77;2.80;;;21.20;1.00;;;;;;4991419;28;20435;-67
2022/08/02 01:35:56;;;;;;;4.10;2.97;;;21.30;1.00;;;;;;4993595;28;20408;-68
2022/08/02 01:38:32;;;;;;;3.60;3.07;;;21.40;1.00;;;;;;4992863;28;20420;-68
2022/08/02 01:41:01;;;;;;;5.70;3.10;;;21.30;1.00;;;;;;4993421;28;20729;-68
2022/08/02 01:43:28;;;;;;;11.67;3.93;;;21.30;1.00;;;;;;4991660;28;20496;-67
2022/08/02 01:45:57;;;;;;;6.47;3.20;;;21.30;1.00;;;;;;4998222;28;20967;-69
2022/08/02 01:48:26;;;;;;;8.77;3.90;;;21.30;1.00;;;;;;5012447;28;20986;-69
2022/08/02 01:50:52;;;;;;;8.40;5.13;;;21.30;1.00;;;;;;5012530;28;20412;-69
2022/08/02 01:53:20;;;;;;;6.90;5.43;;;21.10;99.90;;;;;;5012602;28;20581;-69
2022/08/02 01:55:49;;;;;;;12.00;5.80;;;21.20;99.90;;;;;;5012820;28;20411;-70
2022/08/02 01:58:18;;;;;;;6.30;5.60;;;21.20;99.90;;;;;;5011875;28;20474;-70
2022/08/02 02:00:45;;;;;;;7.50;6.77;;;21.10;99.90;;;;;;5012581;28;20410;-70
2022/08/02 02:03:19;;;;;;;15.07;8.03;;;20.90;1.00;;;;;;5012327;28;20467;-69
2022/08/02 02:05:47;;;;;;;12.23;8.00;;;20.90;94.20;;;;;;4994737;28;20411;-67
2022/08/02 02:08:16;;;;;;;9.47;7.70;;;20.80;99.90;;;;;;5011509;28;20915;-67
2022/08/02 02:10:44;;;;;;;8.80;7.30;;;20.80;1.00;;;;;;5002840;28;20411;-67
2022/08/02 02:13:17;;;;;;;8.40;6.33;;;20.90;99.90;;;;;;4992699;28;20428;-67
2022/08/02 02:15:50;;;;;;;8.43;5.17;;;20.90;1.00;;;;;;4993000;28;20909;-67
2022/08/02 02:18:27;;;;;;;16.10;7.37;;;20.90;1.00;;;;;;4992128;28;20408;-68
2022/08/02 02:20:55;;;;;;;7.80;6.10;;;20.90;1.00;;;;;;4974997;28;20443;-68
2022/08/02 02:23:21;;;;;;;12.73;7.13;;;20.90;1.00;;;;;;4993751;28;20456;-70
2022/08/02 02:25:47;;;;;;;9.47;7.20;;;21.00;1.00;;;;;;4992415;28;20494;-69
2022/08/02 02:28:32;;;;;;;12.70;6.80;;;21.00;1.00;;;;;;4991890;28;20396;-69
2022/08/02 02:31:06;;;;;;;13.03;8.57;;;21.20;99.90;;;;;;4989596;28;20404;-69
2022/08/02 02:33:36;;;;;;;11.70;7.60;;;21.00;1.00;;;;;;4991176;28;20424;-69
2022/08/02 02:36:02;;;;;;;10.80;7.17;;;20.80;99.90;;;;;;4991420;28;20494;-69
2022/08/02 02:38:31;;;;;;;9.87;7.20;;;21.00;1.00;;;;;;4979833;28;20429;-69
2022/08/02 02:41:01;;;;;;;9.23;8.30;;;21.10;1.00;;;;;;4972875;28;20412;-69
2022/08/02 02:43:29;;;;;;;13.60;7.73;;;21.00;1.00;;;;;;4972506;28;20528;-70
2022/08/02 02:45:56;;;;;;;11.90;9.53;;;20.90;25.80;;;;;;4997625;28;20880;-69
2022/08/02 02:48:22;;;;;;;16.27;10.77;;;20.90;94.40;;;;;;4981817;28;20515;-68
2022/08/02 02:50:49;;;;;;;21.40;11.10;;;20.90;99.90;;;;;;4996908;28;20408;-69
2022/08/02 02:53:18;;;;;;;25.63;11.80;;;20.80;1.00;;;;;;4999736;28;20539;-68
2022/08/02 02:55:45;;;;;;;15.03;10.10;;;20.80;1.00;;;;;;5001074;28;20430;-67
2022/08/02 02:58:12;;;;;;;15.53;11.00;;;20.90;99.90;;;;;;4999061;28;20408;-68
2022/08/02 03:03:24;;;;;;;23.67;13.10;;;20.80;1.00;;;;;;5017401;23;20483;-60
2022/08/02 03:05:50;;;;;;;12.77;9.70;;;20.80;1.00;;;;;;5002606;28;20404;-60
2022/08/02 03:08:16;;;;;;;11.70;10.37;;;20.80;1.00;;;;;;5011177;28;20407;-60
2022/08/02 03:10:43;;;;;;;12.73;11.00;;;20.90;1.00;;;;;;5004020;28;20176;-59
2022/08/02 03:13:09;;;;;;;20.00;11.53;;;20.90;99.90;;;;;;4995262;28;20196;-59
2022/08/02 03:15:36;;;;;;;16.87;10.07;;;20.90;1.00;;;;;;4994567;28;20405;-61
2022/08/02 03:18:02;;;;;;;22.17;10.43;;;20.90;1.00;;;;;;4993952;28;20411;-61
2022/08/02 03:20:28;;;;;;;12.67;8.73;;;20.80;1.00;;;;;;4994628;28;20396;-59
2022/08/02 03:22:54;;;;;;;15.67;10.27;;;20.80;1.00;;;;;;4994310;28;20193;-61
2022/08/02 03:25:19;;;;;;;21.40;10.10;;;20.70;1.00;;;;;;4993850;28;20248;-62
2022/08/02 03:27:45;;;;;;;11.87;9.87;;;20.70;1.00;;;;;;4993282;28;20649;-61
2022/08/02 03:30:13;;;;;;;16.30;9.83;;;20.80;1.00;;;;;;4993291;28;20169;-61
2022/08/02 03:32:41;;;;;;;13.93;8.93;;;20.80;1.00;;;;;;4993442;28;20483;-62
2022/08/02 03:35:10;;;;;;;19.33;10.87;;;21.00;99.90;;;;;;4993835;28;20452;-61
2022/08/02 03:37:36;;;;;;;11.57;8.43;;;20.90;99.90;;;;;;4992896;28;20427;-61
2022/08/02 03:40:05;;;;;;;20.90;9.10;;;20.90;1.00;;;;;;4992634;28;20412;-61
2022/08/02 03:42:31;;;;;;;15.20;10.27;;;20.90;1.00;;;;;;4992217;28;20424;-59
2022/08/02 03:44:59;;;;;;;18.10;10.43;;;20.90;99.90;;;;;;5004009;28;20435;-61
2022/08/02 03:47:26;;;;;;;15.70;8.73;;;20.90;99.90;;;;;;5011283;28;20168;-59
2022/08/02 03:49:52;;;;;;;14.40;9.40;;;20.90;1.00;;;;;;5011421;28;20434;-59
2022/08/02 03:52:19;;;;;;;11.70;9.57;;;21.10;1.00;;;;;;4991441;28;20908;-60
2022/08/02 03:54:44;;;;;;;13.73;10.73;;;21.10;1.00;;;;;;4991726;28;20498;-59
2022/08/02 03:57:10;;;;;;;14.33;9.73;;;21.10;1.00;;;;;;4991044;28;20458;-60
2022/08/02 03:59:44;;;;;;;16.03;9.37;;;21.10;1.00;;;;;;4990610;28;20196;-57
2022/08/02 04:02:11;;;;;;;17.87;9.47;;;21.00;1.00;;;;;;4990792;28;20303;-60
2022/08/02 04:04:37;;;;;;;18.53;10.00;;;21.00;1.00;;;;;;4990834;28;20468;-58
2022/08/02 04:07:03;;;;;;;19.53;10.03;;;21.00;1.00;;;;;;4991994;28;20404;-61
2022/08/02 04:09:28;;;;;;;17.83;9.77;;;21.00;1.00;;;;;;4975336;28;20180;-60
2022/08/02 04:11:54;;;;;;;16.03;10.27;;;20.90;1.00;;;;;;4991880;28;20185;-61
2022/08/02 04:14:20;;;;;;;25.67;11.20;;;20.90;26.60;;;;;;4992663;28;20193;-61
2022/08/02 04:16:51;;;;;;;20.87;8.63;;;21.00;1.00;;;;;;4993155;28;20177;-60
2022/08/02 04:19:46;;;;;;;23.87;10.97;;;21.20;99.90;;;;;;4992592;28;20161;-60
2022/08/02 04:22:36;;;;;;;20.13;11.13;;;21.30;99.90;;;;;;4992519;28;20404;-60
2022/08/02 04:25:05;;;;;;;14.73;10.10;;;21.00;1.00;;;;;;4964368;28;20949;-60
2022/08/02 04:27:31;;;;;;;18.40;12.10;;;21.10;1.00;;;;;;4991931;28;20497;-59
2022/08/02 04:29:58;;;;;;;48.90;13.77;;;21.10;1.00;;;;;;4991085;28;20848;-61
2022/08/02 04:32:24;;;;;;;25.27;13.17;;;21.10;1.00;;;;;;4995881;28;20199;-60
2022/08/02 04:34:50;;;;;;;32.53;12.40;;;21.10;1.00;;;;;;4994926;28;20814;-61
2022/08/02 04:37:16;;;;;;;20.30;11.30;;;21.20;99.90;;;;;;4990619;28;20185;-62
2022/08/02 04:39:42;;;;;;;19.30;11.63;;;21.20;99.90;;;;;;4985994;28;20189;-61
2022/08/02 04:42:08;;;;;;;28.20;14.60;;;21.10;99.90;;;;;;4987659;28;20263;-61
2022/08/02 04:44:34;;;;;;;18.00;11.77;;;21.00;1.00;;;;;;4994098;28;20467;-60
2022/08/02 04:47:01;;;;;;;22.60;12.53;;;21.00;1.00;;;;;;4987485;28;20499;-60
2022/08/02 04:49:28;;;;;;;12.70;10.80;;;20.70;1.00;;;;;;5008766;28;20399;-60
2022/08/02 04:51:54;;;;;;;26.47;13.07;;;20.60;1.00;;;;;;4994415;28;20427;-61
2022/08/02 04:54:20;;;;;;;23.37;13.80;;;20.70;1.00;;;;;;4991368;28;20805;-61
2022/08/02 04:56:46;;;;;;;23.83;12.60;;;20.80;1.00;;;;;;4992589;28;20260;-61
2022/08/02 04:59:11;;;;;;;19.20;10.00;;;20.90;99.90;;;;;;4991372;28;20566;-61
2022/08/02 05:01:38;;;;;;;15.97;11.90;;;20.80;99.90;;;;;;4989612;28;20187;-61
2022/08/02 05:04:04;;;;;;;16.60;11.07;;;20.80;1.00;;;;;;4991384;28;20216;-60
2022/08/02 05:06:30;;;;;;;20.07;12.60;;;20.90;99.90;;;;;;4986283;28;20482;-62
2022/08/02 05:08:56;;;;;;;17.00;9.77;;;21.10;1.00;;;;;;4989550;28;20428;-61
2022/08/02 05:11:23;;;;;;;38.87;13.60;;;21.10;1.00;;;;;;5003223;28;20423;-60
2022/08/02 05:13:49;;;;;;;23.83;12.40;;;21.20;99.90;;;;;;4993478;28;20447;-61
2022/08/02 05:16:16;;;;;;;32.93;12.30;;;21.30;99.90;;;;;;4988818;28;20443;-60
2022/08/02 05:18:41;;;;;;;22.90;11.63;;;21.40;1.00;;;;;;4988168;28;20491;-65
2022/08/02 05:21:07;;;;;;;25.43;11.70;;;21.40;1.00;;;;;;4979871;28;20580;-63
2022/08/02 05:23:33;;;;;;;33.80;13.07;;;21.40;49.70;;;;;;4968611;28;20725;-63
2022/08/02 05:25:58;;;;;;;28.70;11.17;;;21.30;99.90;;;;;;4965630;28;20197;-65
2022/08/02 05:28:24;;;;;;;15.43;9.43;;;21.40;26.40;;;;;;4966680;28;20332;-64
2022/08/02 05:30:50;;;;;;;17.30;9.23;;;21.30;99.90;;;;;;4967313;28;20174;-64
2022/08/02 05:33:16;;;;;;;14.17;9.40;;;21.40;99.90;;;;;;4952695;28;20301;-65
2022/08/02 05:35:42;;;;;;;15.20;10.47;;;21.40;1.00;;;;;;4948258;29;20504;-65
2022/08/02 05:38:07;;;;;;;17.83;10.90;;;21.60;1.00;;;;;;4965979;28;20202;-64
2022/08/02 05:40:33;;;;;;;15.90;11.30;;;21.70;1.00;;;;;;4967626;28;20173;-64
2022/08/02 05:42:59;;;;;;;18.63;11.03;;;21.50;1.00;;;;;;4973364;28;20197;-64
2022/08/02 05:45:25;;;;;;;20.00;10.60;;;21.80;1.00;;;;;;4975624;28;20189;-65
2022/08/02 05:47:51;;;;;;;18.80;11.13;;;22.00;99.90;;;;;;4970310;28;20177;-65
2022/08/02 05:50:17;;;;;;;13.90;10.40;;;21.90;99.90;;;;;;4969794;28;20201;-65
2022/08/02 05:52:49;;;;;;;22.30;11.07;;;21.90;1.00;;;;;;4980608;28;20195;-65
2022/08/02 05:55:27;;;;;;;16.00;10.87;;;22.10;99.90;;;;;;4980455;28;20488;-63
2022/08/02 05:58:11;;;;;;;22.57;10.63;;;22.00;99.90;;;;;;4969505;28;20425;-65
2022/08/02 06:00:40;;;;;;;14.87;9.90;;;21.90;99.90;;;;;;4957949;28;20416;-65
2022/08/02 06:03:28;;;;;;;19.67;11.13;;;22.20;99.90;;;;;;4964005;28;20469;-64
2022/08/02 06:06:04;;;;;;;29.63;12.00;;;22.00;99.90;;;;;;4969465;28;20487;-65
2022/08/02 06:08:41;;;;;;;43.23;12.17;;;21.80;1.00;;;;;;4969091;28;20446;-63
2022/08/02 06:11:11;;;;;;;42.10;12.33;;;21.80;1.00;;;;;;4967389;28;20512;-63
2022/08/02 06:13:37;;;;;;;20.53;12.83;;;22.30;1.00;;;;;;4967302;28;20477;-64
2022/08/02 06:16:04;;;;;;;20.53;11.90;;;22.30;99.90;;;;;;4967021;28;20417;-65
2022/08/02 06:18:31;;;;;;;18.53;10.70;;;22.30;99.90;;;;;;4969112;28;21008;-65
2022/08/02 06:21:01;;;;;;;12.60;9.90;;;22.30;99.90;;;;;;4968945;28;20850;-65
2022/08/02 06:23:28;;;;;;;14.47;11.47;;;22.50;99.90;;;;;;4969627;28;20547;-65
2022/08/02 06:25:56;;;;;;;20.93;13.20;;;22.50;99.90;;;;;;4952221;28;20447;-65
2022/08/02 06:28:22;;;;;;;36.63;15.50;;;22.40;99.90;;;;;;4968524;28;20488;-65
2022/08/02 06:30:48;;;;;;;41.93;16.40;;;22.40;99.90;;;;;;4968830;28;20414;-67
2022/08/02 06:33:14;;;;;;;37.53;16.00;;;22.50;99.90;;;;;;4968993;28;20809;-65
2022/08/02 06:36:08;;;;;;;28.20;14.63;;;22.60;99.90;;;;;;4965960;28;20413;-64
2022/08/02 06:38:54;;;;;;;22.60;12.30;;;22.50;99.90;;;;;;4968268;28;20519;-63
2022/08/02 06:41:23;;;;;;;16.80;11.57;;;22.10;99.90;;;;;;4964305;28;20902;-63
2022/08/02 06:43:59;;;;;;;11.57;9.97;;;22.10;1.00;;;;;;4971425;28;20464;-64
2022/08/02 06:46:26;;;;;;;23.50;10.60;;;22.30;99.90;;;;;;4965878;28;20463;-64
2022/08/02 06:48:52;;;;;;;20.33;10.30;;;22.40;99.90;;;;;;4970827;28;20420;-64
2022/08/02 06:51:17;;;;;;;12.00;9.17;;;22.60;99.90;;;;;;4970662;28;20513;-64
2022/08/02 06:53:44;;;;;;;20.37;9.10;;;22.90;35.90;;;;;;4970265;28;20202;-65
2022/08/02 06:56:10;;;;;;;16.87;9.10;;;23.10;1.00;;;;;;4971325;28;20185;-64
2022/08/02 06:58:36;;;;;;;32.73;10.67;;;23.70;1.00;;;;;;4981656;28;21290;-63
2022/08/02 07:01:05;;;;;;;18.50;8.70;;;23.90;1.00;;;;;;4968934;28;20734;-64
2022/08/02 07:03:32;;;;;;;26.13;8.97;;;23.80;1.00;;;;;;4976549;28;20297;-64
2022/08/02 07:05:58;;;;;;;31.37;9.37;;;23.90;1.00;;;;;;4972170;28;20425;-65
2022/08/02 07:08:25;;;;;;;14.20;7.90;;;24.00;1.00;;;;;;4969517;28;20430;-66
2022/08/02 07:10:51;;;;;;;23.23;9.30;;;24.30;1.00;;;;;;4967248;28;20963;-65
2022/08/02 07:13:17;;;;;;;10.23;7.70;;;24.20;1.00;;;;;;4964094;28;20457;-65
2022/08/02 07:15:42;;;;;;;11.90;8.40;;;24.40;1.00;;;;;;4963929;28;20432;-63
2022/08/02 07:18:13;;;;;;;29.00;10.40;;;24.60;1.00;;;;;;4969557;28;20310;-64
2022/08/02 07:20:40;;;;;;;23.93;10.70;;;24.40;1.00;;;;;;4970454;28;20174;-64
2022/08/02 07:23:06;;;;;;;27.47;9.70;;;24.30;1.00;;;;;;4970731;28;20460;-65
2022/08/02 07:25:32;;;;;;;17.43;8.67;;;24.60;1.00;;;;;;4977970;28;20481;-65
2022/08/02 07:27:58;;;;;;;29.17;8.50;;;24.10;1.00;;;;;;4966687;28;20205;-66
2022/08/02 07:30:24;;;;;;;27.17;10.23;;;24.30;1.00;;;;;;4969501;28;20352;-65
2022/08/02 07:32:49;;;;;;;29.00;10.57;;;24.70;1.00;;;;;;4970250;28;20178;-66
2022/08/02 07:35:15;;;;;;;20.90;9.43;;;24.80;1.00;;;;;;4970810;28;20182;-66
2022/08/02 07:37:42;;;;;;;12.77;7.47;;;25.10;1.00;;;;;;4969405;28;20272;-65
2022/08/02 07:40:09;;;;;;;11.70;8.47;;;24.80;1.00;;;;;;4970191;28;20184;-66
2022/08/02 07:42:36;;;;;;;19.93;8.50;;;24.50;1.00;;;;;;4970791;28;20615;-66
2022/08/02 07:45:01;;;;;;;28.17;9.63;;;24.50;1.00;;;;;;4971574;28;20577;-65
2022/08/02 07:47:27;;;;;;;25.07;7.70;;;25.20;1.00;;;;;;4969818;28;20435;-65
2022/08/02 07:49:53;;;;;;;36.37;9.00;;;25.50;99.90;;;;;;4969816;28;20521;-66
2022/08/02 07:52:19;;;;;;;7.20;6.07;;;25.50;99.90;;;;;;4969976;28;20344;-66
2022/08/02 07:54:45;;;;;;;13.93;6.90;;;25.20;99.90;;;;;;4969739;28;20202;-66
2022/08/02 07:57:11;;;;;;;6.57;5.73;;;24.70;1.00;;;;;;4969891;28;20448;-66
2022/08/02 07:59:37;;;;;;;17.67;7.20;;;24.40;1.00;;;;;;4974825;28;20460;-66
2022/08/02 08:02:04;;;;;;;10.33;5.93;;;24.40;1.00;;;;;;4971362;28;20197;-66
2022/08/02 08:04:29;;;;;;;18.63;7.57;;;24.30;1.00;;;;;;4979151;28;20202;-66
2022/08/02 08:06:55;;;;;;;7.23;5.90;;;24.20;1.00;;;;;;4968229;28;20507;-66
2022/08/02 08:09:21;;;;;;;18.53;6.30;;;24.60;1.00;;;;;;4968529;28;20178;-66
2022/08/02 08:11:47;;;;;;;19.93;6.20;;;25.00;1.00;;;;;;4969483;28;20182;-66
2022/08/02 08:14:13;;;;;;;15.23;5.53;;;25.30;1.00;;;;;;4969639;28;20237;-64
2022/08/02 08:16:39;;;;;;;9.77;5.47;;;25.40;99.90;;;;;;4969126;28;20267;-64
2022/08/02 08:19:04;;;;;;;9.53;5.77;;;25.10;99.90;;;;;;4969552;28;20173;-64
2022/08/02 08:21:30;;;;;;;16.73;5.07;;;25.10;99.90;;;;;;4968982;28;20222;-63
2022/08/02 08:23:56;;;;;;;10.00;5.70;;;25.60;99.90;;;;;;4969282;28;20223;-64
2022/08/02 08:26:23;;;;;;;8.60;5.80;;;25.40;99.90;;;;;;4966852;28;20180;-63
2022/08/02 08:28:48;;;;;;;9.23;5.03;;;25.10;99.90;;;;;;4968863;28;20505;-63
2022/08/02 08:31:14;;;;;;;7.40;5.30;;;25.30;99.90;;;;;;4967381;28;20532;-63
2022/08/02 08:33:40;;;;;;;30.20;6.73;;;25.10;99.90;;;;;;4965783;28;20233;-63
2022/08/02 08:36:06;;;;;;;13.83;5.53;;;25.30;99.90;;;;;;4969249;28;20173;-64
2022/08/02 08:38:32;;;;;;;8.73;5.17;;;25.50;99.90;;;;;;4968995;28;20263;-64
2022/08/02 08:40:57;;;;;;;10.67;5.70;;;25.80;99.90;;;;;;4967758;28;20178;-65
2022/08/02 08:43:23;;;;;;;7.13;4.23;;;25.70;99.90;;;;;;4969744;28;20858;-63
2022/08/02 08:45:50;;;;;;;12.90;5.00;;;26.20;99.90;;;;;;4969630;28;20193;-62
2022/08/02 08:48:17;;;;;;;13.67;5.40;;;26.50;99.90;;;;;;4968832;28;20180;-64
2022/08/02 08:51:09;;;;;;;22.87;6.77;;;26.80;99.90;;;;;;4969564;28;20417;-64
2022/08/02 08:53:41;;;;;;;5.07;4.57;;;27.00;99.90;;;;;;4969477;28;20445;-63
2022/08/02 08:56:07;;;;;;;6.00;5.40;;;26.30;99.90;;;;;;4961619;28;20420;-63
2022/08/02 08:58:33;;;;;;;8.10;4.70;;;25.80;99.90;;;;;;4969574;28;20467;-62
2022/08/02 09:00:59;;;;;;;14.00;5.20;;;25.70;99.90;;;;;;4980704;28;20970;-63
2022/08/02 09:03:25;;;;;;;16.70;5.10;;;26.40;99.90;;;;;;4972456;28;20707;-65
2022/08/02 09:05:51;;;;;;;47.97;8.80;;;27.00;99.90;;;;;;4972199;28;20651;-65
2022/08/02 09:08:17;;;;;;;20.70;5.40;;;27.40;99.90;;;;;;4968342;28;20212;-64
2022/08/02 09:10:47;;;;;;;34.30;5.67;;;27.70;99.90;;;;;;4968897;28;20646;-64
2022/08/02 09:13:29;;;;;;;9.40;5.13;;;27.70;99.90;;;;;;4964700;28;20448;-64
2022/08/02 09:15:57;;;;;;;12.20;5.10;;;27.40;99.90;;;;;;4970591;28;20534;-63
2022/08/02 09:18:34;;;;;;;7.33;3.70;;;26.70;99.90;;;;;;4970147;28;20483;-65
2022/08/02 09:21:03;;;;;;;8.97;4.47;;;26.80;99.90;;;;;;4973162;28;20428;-65
2022/08/02 09:23:38;;;;;;;5.93;4.63;;;27.00;99.90;;;;;;4973150;28;20452;-64
2022/08/02 09:26:13;;;;;;;4.50;3.67;;;27.00;99.90;;;;;;4972701;28;20921;-65
2022/08/02 09:28:40;;;;;;;22.00;5.40;;;27.20;99.90;;;;;;4971895;28;20423;-64
2022/08/02 09:31:13;;;;;;;18.30;4.80;;;27.10;99.90;;;;;;4972576;28;20427;-64
2022/08/02 09:33:40;;;;;;;16.60;4.13;;;27.10;99.90;;;;;;4972913;28;20444;-65
2022/08/02 09:36:10;;;;;;;34.00;6.67;;;27.40;99.90;;;;;;4971789;28;20428;-65
2022/08/02 09:38:37;;;;;;;14.43;4.73;;;27.80;99.90;;;;;;4972670;28;20439;-66
2022/08/02 09:41:04;;;;;;;13.53;4.20;;;27.90;99.90;;;;;;4972213;28;20520;-64
2022/08/02 09:43:48;;;;;;;13.00;3.83;;;27.90;99.90;;;;;;4972117;28;20499;-65
2022/08/02 09:46:14;;;;;;;8.30;3.10;;;28.00;99.90;;;;;;4972448;28;20412;-65
2022/08/02 09:48:50;;;;;;;4.20;3.10;;;27.70;99.90;;;;;;4972253;28;20427;-67
2022/08/02 09:51:22;;;;;;;5.93;3.00;;;26.90;99.90;;;;;;4968855;28;20189;-63
2022/08/02 09:53:50;;;;;;;8.00;3.33;;;26.90;99.90;;;;;;4972416;28;20475;-66
2022/08/02 09:56:18;;;;;;;6.23;2.70;;;27.10;99.90;;;;;;4971239;28;21067;-65
2022/08/02 09:58:43;;;;;;;43.57;5.87;;;27.20;99.90;;;;;;4971694;28;20412;-65
2022/08/02 10:01:09;;;;;;;5.23;3.07;;;27.50;99.90;;;;;;4972823;28;20919;-63
2022/08/02 10:03:35;;;;;;;17.60;3.80;;;27.80;99.90;;;;;;4971518;28;20549;-66
2022/08/02 10:06:01;;;;;;;5.87;2.90;;;27.10;99.90;;;;;;4970894;28;20627;-65
2022/08/02 10:08:28;;;;;;;4.43;2.60;;;26.60;99.90;;;;;;4983576;28;20296;-66
2022/08/02 10:11:00;;;;;;;4.70;2.70;;;26.70;99.90;;;;;;4991617;28;20967;-62
2022/08/02 10:13:30;;;;;;;7.13;2.70;;;26.10;99.90;;;;;;4991451;28;20450;-64
2022/08/02 10:15:56;;;;;;;6.07;2.60;;;26.20;99.90;;;;;;4989796;28;20462;-67
2022/08/02 10:18:22;;;;;;;3.50;2.33;;;26.00;99.90;;;;;;4990511;28;20878;-64
2022/08/02 10:20:49;;;;;;;8.63;3.10;;;26.50;99.90;;;;;;4991712;28;20463;-65
2022/08/02 10:23:18;;;;;;;18.70;3.77;;;26.60;99.90;;;;;;4989251;28;20212;-64
2022/08/02 10:25:46;;;;;;;6.30;2.40;;;26.60;99.90;;;;;;4991206;28;20475;-64
2022/08/02 10:28:15;;;;;;;2.43;2.23;;;26.30;99.90;;;;;;4989720;28;20444;-65
2022/08/02 10:30:44;;;;;;;5.23;2.57;;;26.20;99.90;;;;;;4991462;28;20477;-65
2022/08/02 10:33:11;;;;;;;5.20;2.50;;;26.50;99.90;;;;;;4990176;28;20440;-65
2022/08/02 10:35:39;;;;;;;5.87;2.20;;;26.40;99.90;;;;;;4993907;28;20890;-65
2022/08/02 10:38:07;;;;;;;7.20;2.13;;;26.40;99.90;;;;;;5001791;28;20407;-66
2022/08/02 10:40:54;;;;;;;4.87;2.10;;;26.50;99.90;;;;;;4990848;28;20599;-66
2022/08/02 10:43:34;;;;;;;21.30;4.77;;;26.60;99.90;;;;;;4990518;28;20469;-66
2022/08/02 10:46:18;;;;;;;2.20;1.97;;;27.00;99.90;;;;;;4988701;28;20435;-66
2022/08/02 10:49:11;;;;;;;3.70;2.60;;;27.00;99.90;;;;;;4990868;28;20422;-63
2022/08/02 10:52:01;;;;;;;3.50;2.30;;;27.30;99.90;;;;;;4983367;28;20739;-64
2022/08/02 10:55:07;;;;;;;7.80;2.90;;;27.60;99.90;;;;;;4988113;28;20450;-66
2022/08/02 10:57:34;;;;;;;10.13;3.00;;;27.70;99.90;;;;;;4963335;28;20443;-67
2022/08/02 11:00:22;;;;;;;4.43;2.43;;;27.70;99.90;;;;;;4967980;28;21110;-64
2022/08/02 11:02:48;;;;;;;4.80;2.37;;;27.40;99.90;;;;;;4964549;28;20583;-64
2022/08/02 11:05:16;;;;;;;3.60;2.30;;;27.50;99.90;;;;;;4965182;28;20467;-64
2022/08/02 11:07:47;;;;;;;3.90;2.73;;;27.40;99.90;;;;;;4967915;28;20544;-65
2022/08/02 11:10:34;;;;;;;10.57;2.90;;;27.90;99.90;;;;;;4968096;28;20451;-65
2022/08/02 11:13:18;;;;;;;7.43;2.23;;;28.30;99.90;;;;;;4968443;28;21019;-64
2022/08/02 11:15:49;;;;;;;20.57;3.73;;;28.30;99.90;;;;;;4968827;28;20468;-64
2022/08/02 11:18:15;;;;;;;24.03;6.57;;;28.30;99.90;;;;;;4966780;28;20523;-64
2022/08/02 11:20:41;;;;;;;11.57;4.00;;;28.30;99.90;;;;;;4967827;28;20520;-64
2022/08/02 11:23:38;;;;;;;4.83;2.90;;;28.40;99.90;;;;;;4967066;28;20272;-65
2022/08/02 11:26:30;;;;;;;7.80;2.30;;;28.00;99.90;;;;;;4967539;28;20180;-65
2022/08/02 11:29:00;;;;;;;31.30;4.90;;;28.00;99.90;;;;;;4954983;28;20442;-65
2022/08/02 11:31:27;;;;;;;11.63;3.37;;;28.20;99.90;;;;;;4985949;28;20785;-65
2022/08/02 11:33:53;;;;;;;3.30;2.23;;;28.30;99.90;;;;;;4989684;28;20450;-65
2022/08/02 11:36:19;;;;;;;2.13;1.93;;;28.40;99.90;;;;;;4991653;28;20542;-65
2022/08/02 11:38:45;;;;;;;3.40;2.00;;;27.90;99.90;;;;;;5002204;28;20431;-64
2022/08/02 11:41:21;;;;;;;8.40;2.80;;;28.00;99.90;;;;;;4990398;28;20442;-65
2022/08/02 11:43:53;;;;;;;7.90;2.73;;;27.50;99.90;;;;;;4991898;28;20822;-65
2022/08/02 11:46:19;;;;;;;2.33;1.90;;;27.60;99.90;;;;;;4983259;28;20412;-65
2022/08/02 11:48:45;;;;;;;3.60;2.57;;;27.70;99.90;;;;;;4985917;28;20430;-63
2022/08/02 11:51:16;;;;;;;3.57;2.80;;;27.70;99.90;;;;;;4988703;28;20631;-63
2022/08/02 11:53:56;;;;;;;6.20;2.17;;;27.90;99.90;;;;;;4989075;28;20279;-66
2022/08/02 11:56:31;;;;;;;9.50;2.67;;;28.10;99.90;;;;;;4988711;28;20414;-64
2022/08/02 11:59:08;;;;;;;8.37;3.00;;;28.30;99.90;;;;;;4987788;28;20473;-64
2022/08/02 12:01:36;;;;;;;9.00;3.03;;;28.30;99.90;;;;;;4988696;28;20426;-65
2022/08/02 12:04:03;;;;;;;6.70;2.67;;;28.20;99.90;;;;;;4993366;28;20478;-66
2022/08/02 12:06:30;;;;;;;20.60;3.33;;;27.90;99.90;;;;;;4991501;28;20522;-63
2022/08/02 12:09:12;;;;;;;3.57;2.90;;;28.10;99.90;;;;;;4988438;28;20466;-65
2022/08/02 12:11:38;;;;;;;3.27;2.50;;;27.70;99.90;;;;;;4989318;28;20828;-66
2022/08/02 12:14:05;;;;;;;3.50;2.40;;;27.40;99.90;;;;;;4988579;28;20515;-66
2022/08/02 12:19:26;;;;;;;3.37;2.00;;;27.30;99.90;;;;;;4989259;28;20446;-65
2022/08/02 12:22:13;;;;;;;3.40;2.20;;;27.10;99.90;;;;;;4989490;28;20411;-64
2022/08/02 12:24:41;;;;;;;6.60;2.67;;;27.00;99.90;;;;;;4985839;28;20455;-65
2022/08/02 12:27:07;;;;;;;4.97;2.60;;;27.00;99.90;;;;;;4988372;28;20412;-65
2022/08/02 12:29:36;;;;;;;14.93;3.80;;;27.20;99.90;;;;;;4989435;28;20411;-64
2022/08/02 12:32:03;;;;;;;7.73;3.07;;;27.20;99.90;;;;;;4982803;28;20427;-64
2022/08/02 12:34:31;;;;;;;5.67;3.00;;;27.40;99.90;;;;;;4989083;28;20951;-66
2022/08/02 12:36:58;;;;;;;5.30;2.37;;;27.20;99.90;;;;;;4989174;28;20426;-65
2022/08/02 12:39:40;;;;;;;8.00;2.30;;;27.20;99.90;;;;;;4995705;28;20798;-63
2022/08/02 12:42:09;;;;;;;10.13;3.03;;;27.20;99.90;;;;;;4988444;28;20431;-62
2022/08/02 12:44:37;;;;;;;4.20;2.53;;;27.30;99.90;;;;;;4991728;28;20510;-65
2022/08/02 12:47:06;;;;;;;3.90;2.30;;;27.20;99.90;;;;;;4988553;28;20423;-64
2022/08/02 12:49:32;;;;;;;2.67;2.33;;;27.20;99.90;;;;;;4970699;28;20519;-66
2022/08/02 12:51:57;;;;;;;3.10;2.53;;;27.30;99.90;;;;;;4991098;28;20506;-65
2022/08/02 12:54:25;;;;;;;5.83;2.37;;;27.40;99.90;;;;;;4993743;28;20211;-63
2022/08/02 12:56:52;;;;;;;5.40;2.53;;;27.30;99.90;;;;;;4993206;28;20180;-63
2022/08/02 12:59:36;;;;;;;3.97;2.17;;;27.40;99.90;;;;;;4993035;28;20438;-65